createdAt,value
2018-03-07T00:00:43.059Z,98125.63
2018-03-07T00:03:10.626Z,98112.38
2018-03-07T00:05:38.169Z,98118.27
2018-03-07T00:08:06.431Z,98121.53
2018-03-07T00:10:33.995Z,98097.88
2018-03-07T00:13:01.962Z,98095.59
2018-03-07T00:15:29.494Z,98091.06
2018-03-07T00:17:57.294Z,98103.05
2018-03-07T00:20:25.676Z,98122.12
2018-03-07T00:22:53.255Z,98120.78
2018-03-07T00:25:20.935Z,98122.66
2018-03-07T00:27:48.491Z,98119.58
2018-03-07T00:30:16.036Z,98127.45
2018-03-07T00:32:43.623Z,98136.32
2018-03-07T00:35:11.221Z,98137.78
2018-03-07T00:37:38.826Z,98124.63
2018-03-07T00:40:06.408Z,98132.63
2018-03-07T00:42:33.994Z,98128.63
2018-03-07T00:45:01.527Z,98122.91
2018-03-07T00:47:29.436Z,98129.88
2018-03-07T00:49:57.031Z,98125.08
2018-03-07T00:52:25.101Z,98123.59
2018-03-07T00:54:52.662Z,98139.47
2018-03-07T00:57:20.236Z,98132.28
2018-03-07T00:59:47.788Z,98140.95
2018-03-07T01:02:15.354Z,98151.55
2018-03-07T01:04:42.931Z,98150.40
2018-03-07T01:07:10.504Z,98144.36
2018-03-07T01:09:38.444Z,98155.67
2018-03-07T01:12:05.983Z,98137.08
2018-03-07T01:14:33.902Z,98128.23
2018-03-07T01:17:01.866Z,98124.44
2018-03-07T01:19:29.411Z,98122.67
2018-03-07T01:21:56.994Z,98120.88
2018-03-07T01:24:24.538Z,98120.13
2018-03-07T01:26:52.115Z,98109.63
2018-03-07T01:29:19.668Z,98109.84
2018-03-07T01:31:47.534Z,98105.03
2018-03-07T01:34:15.070Z,98107.67
2018-03-07T01:36:42.877Z,98094.13
2018-03-07T01:39:10.423Z,98106.21
2018-03-07T01:41:37.983Z,98106.50
2018-03-07T01:44:05.560Z,98106.72
2018-03-07T01:46:33.622Z,98110.70
2018-03-07T01:49:01.194Z,98115.66
2018-03-07T01:51:40.420Z,98108.48
2018-03-07T01:54:07.987Z,98107.84
2018-03-07T01:56:35.581Z,98109.73
2018-03-07T01:59:03.126Z,98107.34
2018-03-07T02:01:30.665Z,98113.52
2018-03-07T02:03:58.724Z,98106.47
2018-03-07T02:06:26.254Z,98110.66
2018-03-07T02:08:53.797Z,98123.58
2018-03-07T02:11:21.369Z,98121.45
2018-03-07T02:13:48.907Z,98112.80
2018-03-07T02:16:16.486Z,98112.80
2018-03-07T02:18:44.073Z,98127.70
2018-03-07T02:21:11.602Z,98131.68
2018-03-07T02:23:39.181Z,98141.67
2018-03-07T02:26:06.758Z,98135.92
2018-03-07T02:28:34.336Z,98133.36
2018-03-07T02:31:01.870Z,98135.13
2018-03-07T02:33:29.454Z,98135.75
2018-03-07T02:35:57.260Z,98141.88
2018-03-07T02:38:24.795Z,98142.92
2018-03-07T02:40:52.378Z,98144.48
2018-03-07T02:43:19.977Z,98151.19
2018-03-07T02:45:47.529Z,98136.13
2018-03-07T02:48:15.101Z,98136.38
2018-03-07T02:50:43.053Z,98137.77
2018-03-07T02:53:10.647Z,98148.93
2018-03-07T02:55:38.227Z,98159.62
2018-03-07T02:58:05.763Z,98148.22
2018-03-07T03:00:33.346Z,98151.83
2018-03-07T03:03:01.259Z,98164.84
2018-03-07T03:05:29.295Z,98167.60
2018-03-07T03:07:57.236Z,98155.30
2018-03-07T03:10:24.819Z,98150.55
2018-03-07T03:12:52.393Z,98145.39
2018-03-07T03:15:19.986Z,98144.02
2018-03-07T03:17:47.530Z,98164.06
2018-03-07T03:20:15.071Z,98164.66
2018-03-07T03:22:43.055Z,98166.80
2018-03-07T03:25:10.950Z,98159.28
2018-03-07T03:27:38.483Z,98162.01
2018-03-07T03:30:06.062Z,98183.81
2018-03-07T03:32:33.604Z,98173.77
2018-03-07T03:35:01.183Z,98176.58
2018-03-07T03:37:28.722Z,98167.39
2018-03-07T03:39:56.361Z,98171.84
2018-03-07T03:42:23.867Z,98158.67
2018-03-07T03:44:51.406Z,98173.02
2018-03-07T03:47:18.990Z,98159.00
2018-03-07T03:49:46.537Z,98178.55
2018-03-07T03:52:14.191Z,98151.23
2018-03-07T03:54:41.740Z,98165.20
2018-03-07T03:57:09.310Z,98158.63
2018-03-07T03:59:37.261Z,98154.09
2018-03-07T04:02:04.841Z,98145.06
2018-03-07T04:04:32.383Z,98158.46
2018-03-07T04:07:00.176Z,98159.38
2018-03-07T04:09:27.768Z,98172.55
2018-03-07T04:11:55.589Z,98168.09
2018-03-07T04:14:23.176Z,98157.72
2018-03-07T04:16:50.720Z,98169.68
2018-03-07T04:19:18.296Z,98167.20
2018-03-07T04:21:45.850Z,98162.09
2018-03-07T04:24:13.418Z,98174.08
2018-03-07T04:26:40.957Z,98173.43
2018-03-07T04:29:08.529Z,98177.21
2018-03-07T04:31:36.068Z,98164.23
2018-03-07T04:34:03.928Z,98177.25
2018-03-07T04:36:31.813Z,98169.17
2018-03-07T04:38:59.343Z,98172.02
2018-03-07T04:41:26.919Z,98184.02
2018-03-07T04:43:54.451Z,98195.67
2018-03-07T04:46:22.022Z,98178.88
2018-03-07T04:48:49.554Z,98192.26
2018-03-07T04:51:17.359Z,98191.22
2018-03-07T04:53:44.934Z,98196.96
2018-03-07T04:56:12.707Z,98194.48
2018-03-07T04:58:40.282Z,98193.23
2018-03-07T05:01:07.863Z,98174.80
2018-03-07T05:03:35.438Z,98204.22
2018-03-07T05:06:02.983Z,98208.51
2018-03-07T05:08:30.558Z,98214.77
2018-03-07T05:10:58.562Z,98209.96
2018-03-07T05:13:26.152Z,98227.94
2018-03-07T05:15:53.694Z,98230.39
2018-03-07T05:18:21.310Z,98222.80
2018-03-07T05:20:48.868Z,98231.94
2018-03-07T05:23:16.419Z,98230.02
2018-03-07T05:25:44.011Z,98250.14
2018-03-07T05:28:11.968Z,98218.59
2018-03-07T05:30:39.884Z,98244.11
2018-03-07T05:33:07.462Z,98230.06
2018-03-07T05:35:34.990Z,98248.53
2018-03-07T05:38:02.651Z,98249.04
2018-03-07T05:40:30.240Z,98239.97
2018-03-07T05:42:58.187Z,98231.62
2018-03-07T05:45:25.838Z,98254.80
2018-03-07T05:47:53.414Z,98234.69
2018-03-07T05:50:20.966Z,98264.11
2018-03-07T05:52:48.548Z,98251.88
2018-03-07T05:55:16.140Z,98229.89
2018-03-07T05:57:43.684Z,98258.05
2018-03-07T06:00:11.503Z,98262.70
2018-03-07T06:02:39.259Z,98248.59
2018-03-07T06:05:07.630Z,98240.28
2018-03-07T06:07:35.176Z,98247.39
2018-03-07T06:10:02.870Z,98240.29
2018-03-07T06:12:30.418Z,98238.19
2018-03-07T06:14:58.103Z,98250.41
2018-03-07T06:17:25.646Z,98262.49
2018-03-07T06:19:53.314Z,98269.92
2018-03-07T06:22:21.810Z,98268.02
2018-03-07T06:24:49.386Z,98271.10
2018-03-07T06:27:17.218Z,98278.07
2018-03-07T06:29:45.685Z,98288.66
2018-03-07T06:32:13.356Z,98275.55
2018-03-07T06:34:40.927Z,98279.41
2018-03-07T06:37:08.474Z,98282.36
2018-03-07T06:39:36.096Z,98297.17
2018-03-07T06:42:03.655Z,98287.05
2018-03-07T06:44:31.295Z,98284.58
2018-03-07T06:46:58.856Z,98286.02
2018-03-07T06:49:26.438Z,98287.11
2018-03-07T06:51:54.026Z,98285.12
2018-03-07T06:54:21.575Z,98293.36
2018-03-07T06:56:49.141Z,98297.39
2018-03-07T06:59:16.817Z,98306.30
2018-03-07T07:01:44.358Z,98309.20
2018-03-07T07:04:12.385Z,98301.68
2018-03-07T07:06:40.050Z,98306.63
2018-03-07T07:09:07.664Z,98309.16
2018-03-07T07:11:35.596Z,98323.89
2018-03-07T07:14:03.819Z,98314.33
2018-03-07T07:16:32.109Z,98298.82
2018-03-07T07:18:59.922Z,98305.93
2018-03-07T07:21:28.361Z,98310.84
2018-03-07T07:23:55.980Z,98302.23
2018-03-07T07:26:23.523Z,98308.63
2018-03-07T07:28:52.277Z,98298.81
2018-03-07T07:31:20.638Z,98295.97
2018-03-07T07:33:48.698Z,98303.68
2018-03-07T07:36:16.252Z,98309.08
2018-03-07T07:38:43.912Z,98305.28
2018-03-07T07:41:11.468Z,98299.52
2018-03-07T07:43:39.059Z,98304.66
2018-03-07T07:46:06.663Z,98313.62
2018-03-07T07:48:34.243Z,98319.06
2018-03-07T07:51:01.806Z,98317.39
2018-03-07T07:53:29.384Z,98318.11
2018-03-07T07:55:57.855Z,98311.42
2018-03-07T07:58:25.567Z,98323.67
2018-03-07T08:00:53.661Z,98327.44
2018-03-07T08:03:21.212Z,98331.84
2018-03-07T08:05:48.832Z,98333.69
2018-03-07T08:08:16.376Z,98335.12
2018-03-07T08:10:43.930Z,98336.51
2018-03-07T08:13:11.514Z,98335.11
2018-03-07T08:15:39.841Z,98340.02
2018-03-07T08:18:07.427Z,98343.70
2018-03-07T08:20:35.031Z,98347.41
2018-03-07T08:23:02.602Z,98355.41
2018-03-07T08:25:31.004Z,98356.72
2018-03-07T08:27:58.884Z,98362.42
2018-03-07T08:30:26.468Z,98367.43
2018-03-07T08:32:54.069Z,98372.16
2018-03-07T08:35:21.892Z,98373.33
2018-03-07T08:37:49.614Z,98375.30
2018-03-07T08:40:18.021Z,98361.85
2018-03-07T08:42:45.568Z,98363.73
2018-03-07T08:45:13.262Z,98352.94
2018-03-07T08:47:40.864Z,98344.76
2018-03-07T08:50:08.406Z,98344.02
2018-03-07T08:52:35.942Z,98336.23
2018-03-07T08:55:03.533Z,98338.21
2018-03-07T08:57:31.081Z,98341.47
2018-03-07T08:59:58.664Z,98342.86
2018-03-07T09:02:26.220Z,98340.13
2018-03-07T09:04:53.831Z,98339.09
2018-03-07T09:07:21.375Z,98338.80
2018-03-07T09:09:48.979Z,98348.83
2018-03-07T09:12:16.822Z,98350.19
2018-03-07T09:14:44.751Z,98349.13
2018-03-07T09:17:12.314Z,98349.39
2018-03-07T09:19:39.912Z,98347.27
2018-03-07T09:22:07.662Z,98350.12
2018-03-07T09:24:35.217Z,98346.65
2018-03-07T09:27:02.780Z,98345.05
2018-03-07T09:29:31.343Z,98345.14
2018-03-07T09:31:58.979Z,98344.44
2018-03-07T09:34:26.561Z,98343.06
2018-03-07T09:36:54.106Z,98346.59
2018-03-07T09:39:21.744Z,98345.48
2018-03-07T09:41:49.381Z,98347.27
2018-03-07T09:44:16.935Z,98350.38
2018-03-07T09:46:44.522Z,98349.06
2018-03-07T09:49:12.128Z,98336.00
2018-03-07T09:51:39.688Z,98328.77
2018-03-07T09:54:07.593Z,98327.30
2018-03-07T09:56:35.241Z,98341.20
2018-03-07T09:59:02.826Z,98345.36
2018-03-07T10:01:30.541Z,98341.53
2018-03-07T10:03:58.122Z,98342.70
2018-03-07T10:06:25.672Z,98347.44
2018-03-07T10:08:53.225Z,98335.80
2018-03-07T10:11:20.807Z,98325.77
2018-03-07T10:13:48.361Z,98326.80
2018-03-07T10:16:15.969Z,98345.67
2018-03-07T10:18:43.521Z,98344.00
2018-03-07T10:21:11.072Z,98336.48
2018-03-07T10:23:38.664Z,98332.20
2018-03-07T10:26:06.259Z,98334.05
2018-03-07T10:28:33.931Z,98332.20
2018-03-07T10:31:01.557Z,98329.16
2018-03-07T10:33:29.109Z,98324.73
2018-03-07T10:35:57.021Z,98330.77
2018-03-07T10:38:24.624Z,98332.09
2018-03-07T10:40:53.275Z,98334.44
2018-03-07T10:43:20.820Z,98324.75
2018-03-07T10:45:48.685Z,98325.34
2018-03-07T10:48:16.676Z,98331.30
2018-03-07T10:50:44.312Z,98320.58
2018-03-07T10:53:11.906Z,98326.80
2018-03-07T10:55:39.458Z,98336.89
2018-03-07T10:58:07.053Z,98341.45
2018-03-07T11:00:39.475Z,98344.34
2018-03-07T11:03:07.018Z,98330.61
2018-03-07T11:05:34.650Z,98317.74
2018-03-07T11:08:02.211Z,98328.14
2018-03-07T11:10:30.191Z,98320.68
2018-03-07T11:12:57.784Z,98322.61
2018-03-07T11:15:25.391Z,98321.41
2018-03-07T11:17:53.753Z,98308.30
2018-03-07T11:20:21.371Z,98306.81
2018-03-07T11:22:48.970Z,98309.97
2018-03-07T11:25:16.524Z,98307.68
2018-03-07T11:27:44.146Z,98304.41
2018-03-07T11:30:11.694Z,98298.73
2018-03-07T11:32:39.456Z,98297.00
2018-03-07T11:35:07.076Z,98283.66
2018-03-07T11:37:34.625Z,98281.28
2018-03-07T11:40:02.186Z,98277.06
2018-03-07T11:42:30.045Z,98275.16
2018-03-07T11:44:57.628Z,98269.97
2018-03-07T11:47:25.196Z,98271.74
2018-03-07T11:49:52.807Z,98260.45
2018-03-07T11:52:20.578Z,98261.60
2018-03-07T11:54:48.176Z,98265.69
2018-03-07T11:57:15.806Z,98261.64
2018-03-07T11:59:43.364Z,98272.09
2018-03-07T12:02:11.497Z,98274.16
2018-03-07T12:04:39.058Z,98267.70
2018-03-07T12:07:06.641Z,98270.33
2018-03-07T12:09:34.223Z,98276.09
2018-03-07T12:12:01.794Z,98274.72
2018-03-07T12:14:29.367Z,98273.88
2018-03-07T12:16:57.602Z,98268.55
2018-03-07T12:19:25.152Z,98270.33
2018-03-07T12:21:52.699Z,98272.79
2018-03-07T12:24:20.279Z,98275.41
2018-03-07T12:26:48.336Z,98276.37
2018-03-07T12:29:16.118Z,98283.74
2018-03-07T12:31:43.734Z,98279.92
2018-03-07T12:34:11.334Z,98284.33
2018-03-07T12:36:38.940Z,98288.27
2018-03-07T12:39:06.646Z,98293.95
2018-03-07T12:41:34.264Z,98286.98
2018-03-07T12:44:01.920Z,98283.16
2018-03-07T12:46:31.200Z,98280.47
2018-03-07T12:48:58.812Z,98281.23
2018-03-07T12:51:27.339Z,98278.91
2018-03-07T12:53:54.926Z,98277.59
2018-03-07T12:56:22.564Z,98280.14
2018-03-07T12:58:50.146Z,98285.20
2018-03-07T13:01:17.804Z,98274.44
2018-03-07T13:03:46.699Z,98280.34
2018-03-07T13:06:14.367Z,98279.33
2018-03-07T13:08:42.204Z,98272.09
2018-03-07T13:11:10.203Z,98265.07
2018-03-07T13:13:37.809Z,98266.23
2018-03-07T13:16:05.351Z,98266.48
2018-03-07T13:18:32.903Z,98262.22
2018-03-07T13:21:01.378Z,98257.66
2018-03-07T13:23:29.504Z,98248.41
2018-03-07T13:25:57.087Z,98253.34
2018-03-07T13:28:25.318Z,98254.02
2018-03-07T13:30:52.904Z,98254.86
2018-03-07T13:33:20.473Z,98250.52
2018-03-07T13:35:48.072Z,98252.70
2018-03-07T13:38:15.618Z,98252.25
2018-03-07T13:40:43.230Z,98257.63
2018-03-07T13:43:10.839Z,98246.16
2018-03-07T13:45:38.964Z,98249.66
2018-03-07T13:48:06.561Z,98248.82
2018-03-07T13:50:38.574Z,98247.53
2018-03-07T13:53:06.254Z,98253.34
2018-03-07T13:55:33.838Z,98257.22
2018-03-07T13:58:02.459Z,98259.50
2018-03-07T14:00:30.183Z,98247.66
2018-03-07T14:02:57.730Z,98250.34
2018-03-07T14:05:25.330Z,98242.33
2018-03-07T14:07:53.176Z,98243.06
2018-03-07T14:10:20.774Z,98241.23
2018-03-07T14:12:49.272Z,98240.44
2018-03-07T14:15:16.863Z,98240.13
2018-03-07T14:17:44.522Z,98239.92
2018-03-07T14:20:12.106Z,98237.44
2018-03-07T14:22:39.703Z,98235.91
2018-03-07T14:25:07.995Z,98236.47
2018-03-07T14:27:35.536Z,98241.02
2018-03-07T14:30:03.216Z,98239.48
2018-03-07T14:32:31.402Z,98239.69
2018-03-07T14:34:58.992Z,98230.16
2018-03-07T14:37:26.534Z,98235.80
2018-03-07T14:39:54.147Z,98240.25
2018-03-07T14:42:21.712Z,98238.66
2018-03-07T14:44:49.263Z,98247.02
2018-03-07T14:47:16.876Z,98234.98
2018-03-07T14:49:44.422Z,98242.36
2018-03-07T14:52:12.002Z,98239.73
2018-03-07T14:54:39.595Z,98234.86
2018-03-07T14:57:07.814Z,98241.79
2018-03-07T14:59:35.460Z,98236.66
2018-03-07T15:02:03.043Z,98243.95
2018-03-07T15:04:30.593Z,98242.28
2018-03-07T15:06:58.541Z,98235.39
2018-03-07T15:09:26.100Z,98234.48
2018-03-07T15:11:53.703Z,98235.98
2018-03-07T15:14:21.239Z,98234.88
2018-03-07T15:16:49.097Z,98236.81
2018-03-07T15:19:16.683Z,98241.68
2018-03-07T15:21:44.278Z,98245.64
2018-03-07T15:24:11.828Z,98248.39
2018-03-07T15:26:39.399Z,98246.52
2018-03-07T15:29:06.947Z,98249.00
2018-03-07T15:31:34.928Z,98251.00
2018-03-07T15:34:02.478Z,98250.84
2018-03-07T15:36:30.729Z,98248.89
2018-03-07T15:38:58.269Z,98242.13
2018-03-07T15:41:25.861Z,98241.61
2018-03-07T15:43:53.406Z,98241.45
2018-03-07T15:46:22.198Z,98237.29
2018-03-07T15:48:50.897Z,98237.02
2018-03-07T15:51:18.447Z,98240.67
2018-03-07T15:53:46.090Z,98243.09
2018-03-07T15:56:13.674Z,98247.17
2018-03-07T15:58:41.523Z,98253.52
2018-03-07T16:19:52.155Z,98256.34
2018-03-07T16:22:19.699Z,98246.81
2018-03-07T16:24:47.387Z,98262.08
2018-03-07T16:27:15.559Z,98263.42
2018-03-07T16:29:44.203Z,98273.43
2018-03-07T16:32:11.783Z,98279.47
2018-03-07T16:34:39.860Z,98284.50
2018-03-07T16:37:08.850Z,98284.77
2018-03-07T16:39:36.391Z,98284.09
2018-03-07T16:42:05.067Z,98284.23
2018-03-07T16:44:32.660Z,98279.12
2018-03-07T16:47:00.680Z,98279.73
2018-03-07T16:49:29.046Z,98285.98
2018-03-07T16:51:56.639Z,98288.22
2018-03-07T16:54:24.567Z,98295.73
2018-03-07T16:56:52.407Z,98306.18
2018-03-07T16:59:20.019Z,98309.86
2018-03-07T17:01:47.986Z,98310.53
2018-03-07T17:04:15.543Z,98328.20
2018-03-07T17:06:43.144Z,98334.95
2018-03-07T17:09:10.704Z,98339.08
2018-03-07T17:11:39.054Z,98335.82
2018-03-07T17:14:07.162Z,98336.41
2018-03-07T17:16:34.711Z,98342.55
2018-03-07T17:19:02.312Z,98355.64
2018-03-07T17:21:29.959Z,98351.22
2018-03-07T17:23:57.517Z,98345.09
2018-03-07T17:26:25.111Z,98348.06
2018-03-07T17:28:52.687Z,98350.26
2018-03-07T17:31:21.522Z,98347.64
2018-03-07T17:33:49.120Z,98357.82
2018-03-07T17:36:16.688Z,98371.84
2018-03-07T17:38:44.286Z,98367.78
2018-03-07T17:41:11.888Z,98359.84
2018-03-07T17:43:40.466Z,98363.15
2018-03-07T17:46:08.294Z,98367.73
2018-03-07T17:48:35.848Z,98368.39
2018-03-07T17:51:03.822Z,98369.16
2018-03-07T17:53:31.441Z,98374.45
2018-03-07T17:55:59.028Z,98374.98
2018-03-07T17:58:27.054Z,98381.58
2018-03-07T18:00:54.634Z,98386.25
2018-03-07T18:03:22.570Z,98385.42
2018-03-07T18:05:50.320Z,98389.11
2018-03-07T18:08:17.867Z,98392.78
2018-03-07T18:10:45.446Z,98404.08
2018-03-07T18:13:13.512Z,98404.45
2018-03-07T18:15:41.122Z,98401.95
2018-03-07T18:18:08.677Z,98405.50
2018-03-07T18:20:36.597Z,98404.64
2018-03-07T18:23:05.297Z,98406.17
2018-03-07T18:25:32.857Z,98411.72
2018-03-07T18:28:00.843Z,98422.63
2018-03-07T18:30:28.410Z,98417.95
2018-03-07T18:32:56.342Z,98417.42
2018-03-07T18:35:23.936Z,98422.84
2018-03-07T18:37:51.578Z,98423.59
2018-03-07T18:40:19.137Z,98421.98
2018-03-07T18:42:46.741Z,98431.16
2018-03-07T18:45:14.283Z,98429.55
2018-03-07T18:47:41.875Z,98433.61
2018-03-07T18:50:10.103Z,98442.15
2018-03-07T18:52:37.705Z,98434.54
2018-03-07T18:55:05.363Z,98440.96
2018-03-07T18:57:33.461Z,98448.82
2018-03-07T19:00:01.386Z,98454.36
2018-03-07T19:02:29.939Z,98459.50
2018-03-07T19:04:57.716Z,98455.99
2018-03-07T19:07:26.177Z,98456.82
2018-03-07T19:09:53.979Z,98473.56
2018-03-07T19:12:22.276Z,98475.91
2018-03-07T19:14:51.360Z,98478.20
2018-03-07T19:17:19.392Z,98473.65
2018-03-07T19:19:47.873Z,98472.05
2018-03-07T19:22:16.587Z,98471.93
2018-03-07T19:24:44.169Z,98470.56
2018-03-07T19:27:12.559Z,98470.06
2018-03-07T19:29:40.103Z,98478.47
2018-03-07T19:32:09.045Z,98474.94
2018-03-07T19:34:37.035Z,98475.72
2018-03-07T19:37:05.487Z,98479.70
2018-03-07T19:39:34.879Z,98488.66
2018-03-07T19:42:03.308Z,98485.06
2018-03-07T19:44:31.060Z,98495.42
2018-03-07T19:46:58.625Z,98500.37
2018-03-07T19:49:26.353Z,98500.92
2018-03-07T19:51:54.031Z,98499.73
2018-03-07T19:54:21.592Z,98504.30
2018-03-07T19:56:49.319Z,98508.18
2018-03-07T19:59:16.862Z,98499.22
2018-03-07T20:01:44.820Z,98497.67
2018-03-07T20:04:12.893Z,98515.45
2018-03-07T20:06:40.491Z,98517.63
2018-03-07T20:09:10.365Z,98521.08
2018-03-07T20:11:37.990Z,98522.67
2018-03-07T20:14:05.558Z,98519.77
2018-03-07T20:16:33.646Z,98512.23
2018-03-07T20:19:01.225Z,98516.84
2018-03-07T20:21:30.025Z,98525.41
2018-03-07T20:23:57.763Z,98528.29
2018-03-07T20:26:26.617Z,98532.00
2018-03-07T20:28:55.388Z,98533.27
2018-03-07T20:31:23.212Z,98525.62
2018-03-07T20:33:51.604Z,98527.99
2018-03-07T20:36:19.636Z,98529.48
2018-03-07T20:38:47.234Z,98525.01
2018-03-07T20:41:14.878Z,98522.99
2018-03-07T20:43:43.720Z,98511.66
2018-03-07T20:46:11.298Z,98514.98
2018-03-07T20:48:38.859Z,98511.48
2018-03-07T20:51:06.448Z,98511.34
2018-03-07T20:53:34.051Z,98518.15
2018-03-07T20:56:03.286Z,98518.65
2018-03-07T20:58:31.143Z,98506.70
2018-03-07T21:00:58.746Z,98507.45
2018-03-07T21:03:26.714Z,98519.02
2018-03-07T21:05:54.529Z,98510.67
2018-03-07T21:08:22.136Z,98505.83
2018-03-07T21:10:50.499Z,98498.73
2018-03-07T21:13:18.037Z,98505.09
2018-03-07T21:15:45.635Z,98498.75
2018-03-07T21:18:13.770Z,98507.17
2018-03-07T21:20:41.315Z,98508.86
2018-03-07T21:23:09.357Z,98514.78
2018-03-07T21:25:37.165Z,98514.75
2018-03-07T21:28:05.886Z,98511.52
2018-03-07T21:30:33.532Z,98505.45
2018-03-07T21:33:01.122Z,98498.78
2018-03-07T21:35:28.738Z,98497.61
2018-03-07T21:37:57.095Z,98501.94
2018-03-07T21:40:24.631Z,98496.36
2018-03-07T21:42:52.224Z,98488.88
2018-03-07T21:45:20.507Z,98482.31
2018-03-07T21:47:48.064Z,98482.55
2018-03-07T21:50:15.668Z,98483.95
2018-03-07T21:52:43.708Z,98479.33
2018-03-07T21:55:11.254Z,98481.43
2018-03-07T21:57:39.206Z,98477.70
2018-03-07T22:00:06.747Z,98479.79
2018-03-07T22:02:34.348Z,98471.29
2018-03-07T22:05:02.843Z,98466.54
2018-03-07T22:07:30.432Z,98460.77
2018-03-07T22:09:57.983Z,98468.08
2018-03-07T22:12:25.570Z,98477.45
2018-03-07T22:14:53.113Z,98490.41
2018-03-07T22:17:20.712Z,98500.55
2018-03-07T22:19:49.386Z,98494.94
2018-03-07T22:22:16.979Z,98497.83
2018-03-07T22:24:44.517Z,98485.95
2018-03-07T22:27:12.058Z,98485.67
2018-03-07T22:29:39.643Z,98486.36
2018-03-07T22:32:07.226Z,98488.39
2018-03-07T22:34:34.802Z,98487.44
2018-03-07T22:37:02.343Z,98490.34
2018-03-07T22:39:29.932Z,98495.92
2018-03-07T22:41:57.479Z,98500.80
2018-03-07T22:44:25.073Z,98497.98
2018-03-07T22:46:53.143Z,98504.81
2018-03-07T22:49:21.571Z,98502.33
2018-03-07T22:51:49.745Z,98509.75
2018-03-07T22:54:17.327Z,98515.26
2018-03-07T22:56:44.861Z,98513.05
2018-03-07T22:59:12.693Z,98512.36
2018-03-07T23:01:40.280Z,98505.69
2018-03-07T23:04:07.818Z,98504.56
2018-03-07T23:06:35.866Z,98516.09
2018-03-07T23:09:03.474Z,98513.72
2018-03-07T23:11:31.096Z,98516.46
2018-03-07T23:13:58.651Z,98518.41
2018-03-07T23:16:26.326Z,98509.80
2018-03-07T23:18:53.866Z,98506.37
2018-03-07T23:21:21.402Z,98507.34
2018-03-07T23:23:49.326Z,98506.72
2018-03-07T23:26:16.865Z,98514.98
2018-03-07T23:28:44.452Z,98509.13
2018-03-07T23:31:11.990Z,98510.69
2018-03-07T23:33:39.995Z,98504.52
2018-03-07T23:36:08.269Z,98500.19
2018-03-07T23:38:35.810Z,98496.94
2018-03-07T23:41:04.109Z,98483.27
2018-03-07T23:43:32.275Z,98472.80
2018-03-07T23:45:59.854Z,98474.14
2018-03-07T23:48:27.704Z,98477.13
2018-03-07T23:50:55.477Z,98475.83
2018-03-07T23:53:23.324Z,98475.82
2018-03-07T23:55:50.860Z,98466.03
2018-03-07T23:58:19.077Z,98465.56
